createdAt,value
2023-07-18T00:00:13.380Z,89114.00
2023-07-18T00:01:13.577Z,89116.00
2023-07-18T00:02:13.608Z,89116.00
2023-07-18T00:03:13.574Z,89114.00
2023-07-18T00:04:13.697Z,89112.00
2023-07-18T00:05:13.804Z,89110.00
2023-07-18T00:06:13.625Z,89110.00
2023-07-18T00:07:13.628Z,89108.00
2023-07-18T00:08:13.624Z,89106.00
2023-07-18T00:09:13.635Z,89106.00
2023-07-18T00:10:13.638Z,89104.00
2023-07-18T00:11:13.620Z,89106.00
2023-07-18T00:12:13.707Z,89106.00
2023-07-18T00:13:13.721Z,89106.00
2023-07-18T00:14:13.810Z,89104.00
2023-07-18T00:15:13.851Z,89104.00
2023-07-18T00:16:14.032Z,89102.00
2023-07-18T00:17:13.985Z,89104.00
2023-07-18T00:18:14.072Z,89106.00
2023-07-18T00:19:14.124Z,89108.00
2023-07-18T00:20:14.172Z,89108.00
2023-07-18T00:21:14.184Z,89106.00
2023-07-18T00:22:14.177Z,89108.00
2023-07-18T00:23:14.224Z,89110.00
2023-07-18T00:24:14.169Z,89110.00
2023-07-18T00:25:14.285Z,89110.00
2023-07-18T00:26:14.158Z,89112.00
2023-07-18T00:27:14.146Z,89110.00
2023-07-18T00:28:14.160Z,89110.00
2023-07-18T00:29:14.134Z,89112.00
2023-07-18T00:30:14.155Z,89114.00
2023-07-18T00:31:14.184Z,89112.00
2023-07-18T00:32:14.225Z,89112.00
2023-07-18T00:33:14.211Z,89112.00
2023-07-18T00:34:14.251Z,89110.00
2023-07-18T00:35:14.293Z,89110.00
2023-07-18T00:36:14.285Z,89108.00
2023-07-18T00:37:14.288Z,89106.00
2023-07-18T00:38:14.265Z,89108.00
2023-07-18T00:39:14.260Z,89110.00
2023-07-18T00:40:14.258Z,89112.00
2023-07-18T00:41:14.277Z,89112.00
2023-07-18T00:42:14.237Z,89112.00
2023-07-18T00:43:14.225Z,89114.00
2023-07-18T00:44:14.240Z,89116.00
2023-07-18T00:45:14.238Z,89116.00
2023-07-18T00:46:14.229Z,89116.00
2023-07-18T00:47:14.201Z,89118.00
2023-07-18T00:48:14.203Z,89118.00
2023-07-18T00:49:14.202Z,89116.00
2023-07-18T00:50:14.194Z,89116.00
2023-07-18T00:51:14.172Z,89116.00
2023-07-18T00:52:14.175Z,89120.00
2023-07-18T00:53:14.147Z,89120.00
2023-07-18T00:54:14.151Z,89120.00
2023-07-18T00:55:14.161Z,89118.00
2023-07-18T00:56:14.147Z,89120.00
2023-07-18T00:57:14.162Z,89118.00
2023-07-18T00:58:14.146Z,89118.00
2023-07-18T00:59:14.122Z,89116.00
2023-07-18T01:00:14.123Z,89114.00
2023-07-18T01:01:14.129Z,89110.00
2023-07-18T01:02:14.130Z,89110.00
2023-07-18T01:03:14.133Z,89108.00
2023-07-18T01:04:14.077Z,89108.00
2023-07-18T01:05:14.113Z,89108.00
2023-07-18T01:06:14.071Z,89108.00
2023-07-18T01:07:14.062Z,89108.00
2023-07-18T01:08:14.049Z,89108.00
2023-07-18T01:09:14.039Z,89106.00
2023-07-18T01:10:14.051Z,89104.00
2023-07-18T01:11:14.035Z,89102.00
2023-07-18T01:12:14.032Z,89102.00
2023-07-18T01:13:14.023Z,89100.00
2023-07-18T01:14:14.015Z,89098.00
2023-07-18T01:15:14.365Z,89096.00
2023-07-18T01:16:14.029Z,89096.00
2023-07-18T01:17:14.002Z,89094.00
2023-07-18T01:18:14.004Z,89092.00
2023-07-18T01:19:13.983Z,89090.00
2023-07-18T01:20:13.984Z,89088.00
2023-07-18T01:21:13.968Z,89088.00
2023-07-18T01:22:13.952Z,89088.00
2023-07-18T01:23:14.014Z,89078.00
2023-07-18T01:24:13.944Z,89084.00
2023-07-18T01:25:13.946Z,89086.00
2023-07-18T01:26:13.938Z,89086.00
2023-07-18T01:27:13.934Z,89086.00
2023-07-18T01:28:13.979Z,89082.00
2023-07-18T01:29:14.033Z,89088.00
2023-07-18T01:30:14.077Z,89088.00
2023-07-18T01:31:14.164Z,89082.00
2023-07-18T01:32:14.126Z,89084.00
2023-07-18T01:33:14.180Z,89082.00
2023-07-18T01:34:14.241Z,89082.00
2023-07-18T01:35:14.236Z,89082.00
2023-07-18T01:36:14.233Z,89082.00
2023-07-18T01:37:14.284Z,89084.00
2023-07-18T01:38:14.284Z,89082.00
2023-07-18T01:39:14.370Z,89082.00
2023-07-18T01:40:14.391Z,89084.00
2023-07-18T01:41:14.402Z,89084.00
2023-07-18T01:42:14.421Z,89080.00
2023-07-18T01:43:14.445Z,89082.00
2023-07-18T01:44:14.486Z,89080.00
2023-07-18T01:45:14.530Z,89078.00
2023-07-18T01:46:14.578Z,89076.00
2023-07-18T01:47:14.761Z,89078.00
2023-07-18T01:48:14.695Z,89078.00
2023-07-18T01:49:14.730Z,89078.00
2023-07-18T01:50:14.815Z,89076.00
2023-07-18T01:51:14.773Z,89078.00
2023-07-18T01:52:14.805Z,89078.00
2023-07-18T01:53:14.843Z,89080.00
2023-07-18T01:54:14.846Z,89082.00
2023-07-18T01:55:14.866Z,89082.00
2023-07-18T01:56:14.841Z,89082.00
2023-07-18T01:57:14.847Z,89082.00
2023-07-18T01:58:14.848Z,89082.00
2023-07-18T01:59:14.863Z,89084.00
2023-07-18T02:00:15.040Z,89084.00
2023-07-18T02:01:14.940Z,89084.00
2023-07-18T02:02:14.862Z,89080.00
2023-07-18T02:03:14.849Z,89082.00
2023-07-18T02:04:14.820Z,89080.00
2023-07-18T02:05:14.833Z,89082.00
2023-07-18T02:06:14.831Z,89082.00
2023-07-18T02:07:14.827Z,89084.00
2023-07-18T02:08:14.826Z,89086.00
2023-07-18T02:09:14.829Z,89086.00
2023-07-18T02:10:14.818Z,89082.00
2023-07-18T02:11:14.815Z,89088.00
2023-07-18T02:12:14.817Z,89086.00
2023-07-18T02:13:14.840Z,89084.00
2023-07-18T02:14:14.884Z,89084.00
2023-07-18T02:15:14.923Z,89082.00
2023-07-18T02:16:14.949Z,89084.00
2023-07-18T02:17:15.013Z,89084.00
2023-07-18T02:18:15.025Z,89084.00
2023-07-18T02:19:15.030Z,89086.00
2023-07-18T02:20:15.072Z,89086.00
2023-07-18T02:21:15.027Z,89088.00
2023-07-18T02:22:15.024Z,89086.00
2023-07-18T02:23:15.091Z,89086.00
2023-07-18T02:24:15.036Z,89086.00
2023-07-18T02:25:15.045Z,89086.00
2023-07-18T02:26:15.044Z,89088.00
2023-07-18T02:27:15.039Z,89090.00
2023-07-18T02:28:15.031Z,89088.00
2023-07-18T02:29:15.071Z,89090.00
2023-07-18T02:30:15.044Z,89090.00
2023-07-18T02:31:15.074Z,89088.00
2023-07-18T02:32:15.018Z,89090.00
2023-07-18T02:33:15.056Z,89088.00
2023-07-18T02:34:15.018Z,89088.00
2023-07-18T02:35:15.017Z,89090.00
2023-07-18T02:36:15.018Z,89090.00
2023-07-18T02:37:15.017Z,89092.00
2023-07-18T02:38:15.016Z,89092.00
2023-07-18T02:39:14.999Z,89094.00
2023-07-18T02:40:14.995Z,89094.00
2023-07-18T02:41:14.978Z,89092.00
2023-07-18T02:42:15.012Z,89094.00
2023-07-18T02:43:14.978Z,89096.00
2023-07-18T02:44:14.989Z,89096.00
2023-07-18T02:45:14.993Z,89094.00
2023-07-18T02:46:15.560Z,89094.00
2023-07-18T02:47:14.982Z,89090.00
2023-07-18T02:48:14.982Z,89090.00
2023-07-18T02:49:14.971Z,89090.00
2023-07-18T02:50:14.975Z,89092.00
2023-07-18T02:51:14.974Z,89092.00
2023-07-18T02:52:14.978Z,89092.00
2023-07-18T02:53:14.974Z,89092.00
2023-07-18T02:54:14.965Z,89094.00
2023-07-18T02:55:14.966Z,89094.00
2023-07-18T02:56:14.948Z,89096.00
2023-07-18T02:57:15.043Z,89092.00
2023-07-18T02:58:14.955Z,89090.00
2023-07-18T02:59:14.960Z,89090.00
2023-07-18T03:00:14.953Z,89088.00
2023-07-18T03:01:14.958Z,89090.00
2023-07-18T03:02:14.944Z,89096.00
2023-07-18T03:03:14.979Z,89098.00
2023-07-18T03:04:14.925Z,89092.00
2023-07-18T03:05:14.926Z,89094.00
2023-07-18T03:06:14.892Z,89094.00
2023-07-18T03:07:14.954Z,89092.00
2023-07-18T03:08:14.885Z,89094.00
2023-07-18T03:09:14.887Z,89096.00
2023-07-18T03:10:14.886Z,89096.00
2023-07-18T03:11:14.906Z,89100.00
2023-07-18T03:12:14.874Z,89090.00
2023-07-18T03:13:14.882Z,89086.00
2023-07-18T03:14:14.882Z,89086.00
2023-07-18T03:15:14.876Z,89088.00
2023-07-18T03:16:14.928Z,89092.00
2023-07-18T03:17:14.894Z,89092.00
2023-07-18T03:18:14.853Z,89090.00
2023-07-18T03:19:14.850Z,89088.00
2023-07-18T03:20:14.854Z,89088.00
2023-07-18T03:21:14.833Z,89086.00
2023-07-18T03:22:14.820Z,89088.00
2023-07-18T03:23:14.877Z,89090.00
2023-07-18T03:24:14.829Z,89088.00
2023-07-18T03:25:14.833Z,89092.00
2023-07-18T03:26:14.825Z,89092.00
2023-07-18T03:27:14.834Z,89092.00
2023-07-18T03:28:14.828Z,89090.00
2023-07-18T03:29:14.829Z,89088.00
2023-07-18T03:30:14.856Z,89088.00
2023-07-18T03:31:14.866Z,89088.00
2023-07-18T03:32:14.912Z,89090.00
2023-07-18T03:33:14.839Z,89090.00
2023-07-18T03:34:14.844Z,89088.00
2023-07-18T03:35:14.838Z,89088.00
2023-07-18T03:36:14.843Z,89088.00
2023-07-18T03:37:14.853Z,89088.00
2023-07-18T03:38:14.894Z,89088.00
2023-07-18T03:39:14.949Z,89094.00
2023-07-18T03:40:14.876Z,89094.00
2023-07-18T03:41:14.871Z,89094.00
2023-07-18T03:42:14.862Z,89090.00
2023-07-18T03:43:14.867Z,89092.00
2023-07-18T03:44:14.859Z,89090.00
2023-07-18T03:45:14.891Z,89088.00
2023-07-18T03:46:14.955Z,89092.00
2023-07-18T03:47:20.640Z,89090.00
2023-07-18T03:48:15.982Z,89090.00
2023-07-18T03:49:14.933Z,89092.00
2023-07-18T03:50:14.960Z,89092.00
2023-07-18T03:51:14.927Z,89088.00
2023-07-18T03:52:14.944Z,89090.00
2023-07-18T03:53:14.946Z,89088.00
2023-07-18T03:54:14.938Z,89090.00
2023-07-18T03:55:14.966Z,89092.00
2023-07-18T03:56:14.947Z,89094.00
2023-07-18T03:57:14.965Z,89094.00
2023-07-18T03:58:14.969Z,89094.00
2023-07-18T03:59:14.983Z,89094.00
2023-07-18T04:00:15.399Z,89096.00
2023-07-18T04:01:15.074Z,89092.00
2023-07-18T04:02:15.002Z,89092.00
2023-07-18T04:03:15.049Z,89090.00
2023-07-18T04:04:15.040Z,89090.00
2023-07-18T04:05:15.040Z,89090.00
2023-07-18T04:06:15.031Z,89090.00
2023-07-18T04:07:15.010Z,89090.00
2023-07-18T04:08:15.027Z,89088.00
2023-07-18T04:09:15.045Z,89090.00
2023-07-18T04:10:15.029Z,89088.00
2023-07-18T04:11:15.046Z,89086.00
2023-07-18T04:12:15.033Z,89088.00
2023-07-18T04:13:15.022Z,89088.00
2023-07-18T04:14:15.037Z,89088.00
2023-07-18T04:15:15.053Z,89090.00
2023-07-18T04:16:15.085Z,89086.00
2023-07-18T04:17:15.041Z,89086.00
2023-07-18T04:18:15.100Z,89084.00
2023-07-18T04:19:15.071Z,89078.00
2023-07-18T04:20:15.091Z,89078.00
2023-07-18T04:21:15.077Z,89076.00
2023-07-18T04:22:15.070Z,89080.00
2023-07-18T04:23:15.147Z,89082.00
2023-07-18T04:24:15.123Z,89082.00
2023-07-18T04:25:15.192Z,89078.00
2023-07-18T04:26:15.213Z,89076.00
2023-07-18T04:27:15.251Z,89078.00
2023-07-18T04:28:15.289Z,89080.00
2023-07-18T04:29:15.339Z,89080.00
2023-07-18T04:30:15.397Z,89084.00
2023-07-18T04:31:17.789Z,89084.00
2023-07-18T04:32:15.462Z,89084.00
2023-07-18T04:33:15.448Z,89082.00
2023-07-18T04:34:15.431Z,89080.00
2023-07-18T04:35:15.505Z,89078.00
2023-07-18T04:36:15.429Z,89076.00
2023-07-18T04:37:15.424Z,89076.00
2023-07-18T04:38:15.442Z,89076.00
2023-07-18T04:39:15.456Z,89076.00
2023-07-18T04:40:15.470Z,89076.00
2023-07-18T04:41:15.466Z,89080.00
2023-07-18T04:42:15.465Z,89076.00
2023-07-18T04:43:15.480Z,89080.00
2023-07-18T04:44:15.485Z,89080.00
2023-07-18T04:45:15.501Z,89076.00
2023-07-18T04:46:15.522Z,89076.00
2023-07-18T04:47:15.580Z,89078.00
2023-07-18T04:48:15.591Z,89078.00
2023-07-18T04:49:15.537Z,89076.00
2023-07-18T04:50:15.549Z,89076.00
2023-07-18T04:51:15.558Z,89076.00
2023-07-18T04:52:15.573Z,89072.00
2023-07-18T04:53:15.569Z,89074.00
2023-07-18T04:54:15.588Z,89072.00
2023-07-18T04:55:15.587Z,89070.00
2023-07-18T04:56:15.586Z,89072.00
2023-07-18T04:57:15.591Z,89072.00
2023-07-18T04:58:15.596Z,89076.00
2023-07-18T04:59:15.601Z,89072.00
2023-07-18T05:00:15.628Z,89072.00
2023-07-18T05:01:15.712Z,89072.00
2023-07-18T05:02:15.636Z,89074.00
2023-07-18T05:03:15.843Z,89074.00
2023-07-18T05:04:15.708Z,89070.00
2023-07-18T05:05:15.680Z,89070.00
2023-07-18T05:06:15.677Z,89072.00
2023-07-18T05:07:15.669Z,89076.00
2023-07-18T05:08:15.676Z,89076.00
2023-07-18T05:09:15.730Z,89074.00
2023-07-18T05:10:15.780Z,89074.00
2023-07-18T05:11:15.858Z,89074.00
2023-07-18T05:12:15.927Z,89070.00
2023-07-18T05:13:15.962Z,89072.00
2023-07-18T05:14:15.999Z,89074.00
2023-07-18T05:15:16.064Z,89076.00
2023-07-18T05:16:16.143Z,89074.00
2023-07-18T05:17:16.169Z,89074.00
2023-07-18T05:18:16.232Z,89076.00
2023-07-18T05:19:16.274Z,89074.00
2023-07-18T05:20:16.345Z,89076.00
2023-07-18T05:21:16.461Z,89074.00
2023-07-18T05:22:16.446Z,89078.00
2023-07-18T05:23:16.534Z,89076.00
2023-07-18T05:24:16.563Z,89076.00
2023-07-18T05:25:16.592Z,89076.00
2023-07-18T05:26:16.691Z,89074.00
2023-07-18T05:27:16.693Z,89078.00
2023-07-18T05:28:16.755Z,89076.00
2023-07-18T05:29:16.814Z,89076.00
2023-07-18T05:30:16.924Z,89074.00
2023-07-18T05:31:17.270Z,89074.00
2023-07-18T05:32:16.975Z,89074.00
2023-07-18T05:33:17.034Z,89074.00
2023-07-18T05:34:17.084Z,89070.00
2023-07-18T05:35:17.218Z,89070.00
2023-07-18T05:36:17.201Z,89070.00
2023-07-18T05:37:17.261Z,89070.00
2023-07-18T05:38:17.318Z,89070.00
2023-07-18T05:39:17.365Z,89074.00
2023-07-18T05:40:21.759Z,89074.00
2023-07-18T05:41:18.763Z,89074.00
2023-07-18T05:42:17.419Z,89074.00
2023-07-18T05:43:17.426Z,89076.00
2023-07-18T05:44:17.419Z,89072.00
2023-07-18T05:45:17.436Z,89070.00
2023-07-18T05:46:17.500Z,89072.00
2023-07-18T05:47:17.456Z,89074.00
2023-07-18T05:48:17.431Z,89072.00
2023-07-18T05:49:17.450Z,89076.00
2023-07-18T05:50:17.458Z,89072.00
2023-07-18T05:51:17.809Z,89072.00
2023-07-18T05:52:17.472Z,89072.00
2023-07-18T05:53:17.522Z,89070.00
2023-07-18T05:54:17.562Z,89068.00
2023-07-18T05:55:17.741Z,89070.00
2023-07-18T05:56:17.666Z,89072.00
2023-07-18T05:57:17.711Z,89070.00
2023-07-18T05:58:17.788Z,89070.00
2023-07-18T05:59:17.807Z,89068.00
2023-07-18T06:00:17.877Z,89068.00
2023-07-18T06:01:18.266Z,89068.00
2023-07-18T06:02:18.017Z,89068.00
2023-07-18T06:03:18.128Z,89070.00
2023-07-18T06:04:18.195Z,89072.00
2023-07-18T06:05:18.139Z,89068.00
2023-07-18T06:06:18.185Z,89067.00
2023-07-18T06:07:18.253Z,89065.00
2023-07-18T06:08:18.303Z,89067.00
2023-07-18T06:09:18.336Z,89065.00
2023-07-18T06:10:18.420Z,89067.00
2023-07-18T06:11:18.559Z,89067.00
2023-07-18T06:12:18.519Z,89065.00
2023-07-18T06:13:18.530Z,89068.00
2023-07-18T06:14:18.580Z,89067.00
2023-07-18T06:15:18.683Z,89061.00
2023-07-18T06:16:18.700Z,89063.00
2023-07-18T06:17:18.765Z,89065.00
2023-07-18T06:18:21.455Z,89061.00
2023-07-18T06:19:18.767Z,89061.00
2023-07-18T06:20:18.781Z,89063.00
2023-07-18T06:21:19.231Z,89061.00
2023-07-18T06:22:18.751Z,89063.00
2023-07-18T06:23:18.770Z,89065.00
2023-07-18T06:24:20.032Z,89065.00
2023-07-18T06:25:18.807Z,89065.00
2023-07-18T06:26:18.749Z,89065.00
2023-07-18T06:27:18.800Z,89063.00
2023-07-18T06:28:18.783Z,89061.00
2023-07-18T06:29:18.759Z,89063.00
2023-07-18T06:30:18.800Z,89061.00
2023-07-18T06:31:19.338Z,89059.00
2023-07-18T06:32:18.809Z,89061.00
2023-07-18T06:33:18.809Z,89059.00
2023-07-18T06:34:19.056Z,89059.00
2023-07-18T06:35:23.755Z,89057.00
2023-07-18T06:36:19.855Z,89055.00
2023-07-18T06:37:18.833Z,89059.00
2023-07-18T06:38:18.858Z,89059.00
2023-07-18T06:39:18.840Z,89059.00
2023-07-18T06:40:18.859Z,89061.00
2023-07-18T06:41:19.091Z,89061.00
2023-07-18T06:42:18.845Z,89061.00
2023-07-18T06:43:18.840Z,89061.00
2023-07-18T06:44:18.841Z,89057.00
2023-07-18T06:45:18.860Z,89057.00
2023-07-18T06:46:18.878Z,89053.00
2023-07-18T06:47:18.925Z,89051.00
2023-07-18T06:48:18.867Z,89051.00
2023-07-18T06:49:18.849Z,89055.00
2023-07-18T06:50:18.858Z,89051.00
2023-07-18T06:51:19.215Z,89055.00
2023-07-18T06:52:18.901Z,89051.00
2023-07-18T06:53:18.864Z,89047.00
2023-07-18T06:54:18.883Z,89043.00
2023-07-18T06:55:18.904Z,89045.00
2023-07-18T06:56:18.882Z,89047.00
2023-07-18T06:57:18.898Z,89045.00
2023-07-18T06:58:18.887Z,89043.00
2023-07-18T06:59:18.902Z,89041.00
2023-07-18T07:00:18.945Z,89043.00
2023-07-18T07:01:19.240Z,89041.00
2023-07-18T07:02:18.919Z,89037.00
2023-07-18T07:03:19.138Z,89037.00
2023-07-18T07:04:18.914Z,89035.00
2023-07-18T07:05:18.915Z,89035.00
2023-07-18T07:06:18.913Z,89031.00
2023-07-18T07:07:18.950Z,89029.00
2023-07-18T07:08:18.920Z,89023.00
2023-07-18T07:09:18.896Z,89025.00
2023-07-18T07:10:18.924Z,89027.00
2023-07-18T07:11:19.328Z,89027.00
2023-07-18T07:12:34.632Z,89029.00
2023-07-18T07:13:20.053Z,89031.00
2023-07-18T07:14:19.030Z,89029.00
2023-07-18T07:15:19.028Z,89023.00
2023-07-18T07:16:19.084Z,89019.00
2023-07-18T07:17:19.009Z,89019.00
2023-07-18T07:18:19.006Z,89019.00
2023-07-18T07:19:18.979Z,89017.00
2023-07-18T07:20:18.983Z,89013.00
2023-07-18T07:21:19.463Z,89012.00
2023-07-18T07:22:19.006Z,89008.00
2023-07-18T07:23:19.014Z,89006.00
2023-07-18T07:24:19.009Z,89004.00
2023-07-18T07:25:19.018Z,89004.00
2023-07-18T07:26:18.983Z,89004.00
2023-07-18T07:27:18.983Z,89002.00
2023-07-18T07:28:18.962Z,88998.00
2023-07-18T07:29:19.649Z,88994.00
2023-07-18T07:30:18.941Z,88994.00
2023-07-18T07:31:19.537Z,88992.00
2023-07-18T07:32:18.912Z,88983.00
2023-07-18T07:33:19.498Z,88990.00
2023-07-18T07:34:18.912Z,88990.00
2023-07-18T07:35:18.964Z,88990.00
2023-07-18T07:36:18.933Z,88983.00
2023-07-18T07:37:18.909Z,88990.00
2023-07-18T07:38:18.957Z,88981.00
2023-07-18T07:39:18.902Z,88981.00
2023-07-18T07:40:18.886Z,88981.00
2023-07-18T07:41:19.137Z,88983.00
2023-07-18T07:42:18.863Z,88977.00
2023-07-18T07:43:18.845Z,88975.00
2023-07-18T07:44:18.873Z,88969.00
2023-07-18T07:45:18.852Z,88967.00
2023-07-18T07:46:18.880Z,88969.00
2023-07-18T07:47:18.880Z,88965.00
2023-07-18T07:48:18.934Z,88963.00
2023-07-18T07:49:18.927Z,88963.00
2023-07-18T07:50:18.955Z,88959.00
2023-07-18T07:51:19.884Z,88963.00
2023-07-18T07:52:18.994Z,88959.00
2023-07-18T07:53:19.763Z,88953.00
2023-07-18T07:54:19.038Z,88953.00
2023-07-18T07:55:19.209Z,88952.00
2023-07-18T07:56:19.067Z,88948.00
2023-07-18T07:57:19.130Z,88948.00
2023-07-18T07:58:19.139Z,88946.00
2023-07-18T07:59:19.142Z,88946.00
2023-07-18T08:00:19.139Z,88948.00
2023-07-18T08:01:19.560Z,88946.00
2023-07-18T08:02:19.243Z,88948.00
2023-07-18T08:03:19.182Z,88948.00
2023-07-18T08:04:19.243Z,88946.00
2023-07-18T08:05:19.368Z,88944.00
2023-07-18T08:06:19.157Z,88940.00
2023-07-18T08:07:19.119Z,88940.00
2023-07-18T08:08:19.135Z,88936.00
2023-07-18T08:09:19.092Z,88940.00
2023-07-18T08:10:19.233Z,88936.00
2023-07-18T08:11:19.208Z,88936.00
2023-07-18T08:12:19.045Z,88930.00
2023-07-18T08:13:19.030Z,88924.00
2023-07-18T08:14:19.028Z,88922.00
2023-07-18T08:15:19.066Z,88924.00
2023-07-18T08:16:19.034Z,88922.00
2023-07-18T08:17:19.103Z,88926.00
2023-07-18T08:18:18.974Z,88926.00
2023-07-18T08:19:18.957Z,88924.00
2023-07-18T08:20:18.944Z,88922.00
2023-07-18T08:21:19.071Z,88918.00
2023-07-18T08:22:18.892Z,88914.00
2023-07-18T08:23:18.976Z,88916.00
2023-07-18T08:24:18.879Z,88918.00
2023-07-18T08:25:18.863Z,88918.00
2023-07-18T08:26:19.272Z,88916.00
2023-07-18T08:27:18.860Z,88912.00
2023-07-18T08:28:18.850Z,88910.00
2023-07-18T08:29:18.996Z,88910.00
2023-07-18T08:30:18.818Z,88910.00
2023-07-18T08:31:19.039Z,88908.00
2023-07-18T08:32:18.837Z,88908.00
2023-07-18T08:33:18.792Z,88908.00
2023-07-18T08:34:18.756Z,88906.00
2023-07-18T08:35:18.757Z,88906.00
2023-07-18T08:36:18.723Z,88906.00
2023-07-18T08:37:18.699Z,88904.00
2023-07-18T08:38:18.713Z,88902.00
2023-07-18T08:39:18.699Z,88904.00
2023-07-18T08:40:18.679Z,88898.00
2023-07-18T08:41:18.928Z,88893.00
2023-07-18T08:42:18.677Z,88895.00
2023-07-18T08:43:18.644Z,88893.00
2023-07-18T08:44:18.646Z,88889.00
2023-07-18T08:45:18.713Z,88887.00
2023-07-18T08:46:18.754Z,88887.00
2023-07-18T08:47:18.626Z,88885.00
2023-07-18T08:48:18.644Z,88883.00
2023-07-18T08:49:18.740Z,88879.00
2023-07-18T08:50:18.580Z,88877.00
2023-07-18T08:51:19.451Z,88873.00
2023-07-18T08:52:18.555Z,88871.00
2023-07-18T08:53:18.532Z,88871.00
2023-07-18T08:54:18.527Z,88863.00
2023-07-18T08:55:18.558Z,88863.00
2023-07-18T08:56:18.762Z,88865.00
2023-07-18T08:57:18.465Z,88863.00
2023-07-18T08:58:18.464Z,88867.00
2023-07-18T08:59:18.453Z,88867.00
2023-07-18T09:00:18.430Z,88863.00
2023-07-18T09:01:18.851Z,88863.00
2023-07-18T09:02:18.415Z,88861.00
2023-07-18T09:03:18.370Z,88857.00
2023-07-18T09:04:18.414Z,88851.00
2023-07-18T09:05:18.364Z,88855.00
2023-07-18T09:06:18.338Z,88853.00
2023-07-18T09:07:18.322Z,88849.00
2023-07-18T09:08:18.363Z,88847.00
2023-07-18T09:09:18.362Z,88845.00
2023-07-18T09:10:18.424Z,88843.00
2023-07-18T09:11:18.738Z,88847.00
2023-07-18T09:12:18.392Z,88843.00
2023-07-18T09:13:18.388Z,88845.00
2023-07-18T09:14:18.422Z,88853.00
2023-07-18T09:15:18.402Z,88857.00
2023-07-18T09:16:18.434Z,88855.00
2023-07-18T09:17:18.501Z,88853.00
2023-07-18T09:18:18.360Z,88853.00
2023-07-18T09:19:18.341Z,88845.00
2023-07-18T09:20:18.435Z,88843.00
2023-07-18T09:21:18.621Z,88853.00
2023-07-18T09:22:18.431Z,88845.00
2023-07-18T09:23:18.401Z,88845.00
2023-07-18T09:24:18.381Z,88855.00
2023-07-18T09:25:18.365Z,88849.00
2023-07-18T09:26:18.419Z,88838.00
2023-07-18T09:27:18.470Z,88843.00
2023-07-18T09:28:18.545Z,88845.00
2023-07-18T09:29:18.519Z,88838.00
2023-07-18T09:30:18.574Z,88830.00
2023-07-18T09:31:18.888Z,88826.00
2023-07-18T09:32:19.399Z,88826.00
2023-07-18T09:33:18.646Z,88828.00
2023-07-18T09:34:18.682Z,88828.00
2023-07-18T09:35:18.750Z,88830.00
2023-07-18T09:36:18.784Z,88830.00
2023-07-18T09:37:18.796Z,88828.00
2023-07-18T09:38:18.828Z,88826.00
2023-07-18T09:39:18.865Z,88832.00
2023-07-18T09:40:19.002Z,88826.00
2023-07-18T09:41:21.187Z,88826.00
2023-07-18T09:42:20.158Z,88824.00
2023-07-18T09:43:18.817Z,88822.00
2023-07-18T09:44:31.313Z,88828.00
2023-07-18T09:45:19.742Z,88826.00
2023-07-18T09:46:18.906Z,88824.00
2023-07-18T09:47:18.733Z,88820.00
2023-07-18T09:48:18.677Z,88816.00
2023-07-18T09:49:18.663Z,88818.00
2023-07-18T09:50:19.242Z,88816.00
2023-07-18T09:51:18.843Z,88822.00
2023-07-18T09:52:18.570Z,88824.00
2023-07-18T09:53:18.542Z,88826.00
2023-07-18T09:54:18.532Z,88822.00
2023-07-18T09:55:18.515Z,88818.00
2023-07-18T09:56:18.534Z,88816.00
2023-07-18T09:57:18.549Z,88804.00
2023-07-18T09:58:18.591Z,88800.00
2023-07-18T09:59:18.690Z,88800.00
2023-07-18T10:00:18.693Z,88804.00
2023-07-18T10:01:19.002Z,88802.00
2023-07-18T10:02:18.758Z,88800.00
2023-07-18T10:03:18.828Z,88802.00
2023-07-18T10:04:18.717Z,88796.00
2023-07-18T10:05:18.701Z,88804.00
2023-07-18T10:06:18.748Z,88800.00
2023-07-18T10:07:18.690Z,88810.00
2023-07-18T10:08:18.737Z,88806.00
2023-07-18T10:09:18.634Z,88802.00
2023-07-18T10:10:18.613Z,88806.00
2023-07-18T10:11:18.959Z,88808.00
2023-07-18T10:12:18.612Z,88806.00
2023-07-18T10:13:19.317Z,88795.00
2023-07-18T10:14:18.645Z,88793.00
2023-07-18T10:15:18.667Z,88793.00
2023-07-18T10:16:18.748Z,88795.00
2023-07-18T10:17:18.816Z,88796.00
2023-07-18T10:18:18.887Z,88795.00
2023-07-18T10:19:18.818Z,88795.00
2023-07-18T10:20:18.860Z,88789.00
2023-07-18T10:21:19.168Z,88783.00
2023-07-18T10:22:18.928Z,88789.00
2023-07-18T10:23:18.949Z,88789.00
2023-07-18T10:24:18.996Z,88785.00
2023-07-18T10:25:19.062Z,88789.00
2023-07-18T10:26:19.078Z,88785.00
2023-07-18T10:27:19.112Z,88781.00
2023-07-18T10:28:19.075Z,88779.00
2023-07-18T10:29:19.074Z,88785.00
2023-07-18T10:30:19.041Z,88787.00
2023-07-18T10:31:19.286Z,88791.00
2023-07-18T10:32:19.015Z,88785.00
2023-07-18T10:33:18.980Z,88785.00
2023-07-18T10:34:18.950Z,88787.00
2023-07-18T10:35:18.945Z,88791.00
2023-07-18T10:36:18.916Z,88791.00
2023-07-18T10:37:18.939Z,88783.00
2023-07-18T10:38:18.952Z,88785.00
2023-07-18T10:39:18.986Z,88785.00
2023-07-18T10:40:19.005Z,88785.00
2023-07-18T10:41:19.300Z,88779.00
2023-07-18T10:42:19.054Z,88781.00
2023-07-18T10:43:19.066Z,88785.00
2023-07-18T10:44:19.063Z,88783.00
2023-07-18T10:45:19.759Z,88783.00
2023-07-18T10:46:19.180Z,88783.00
2023-07-18T10:47:19.164Z,88777.00
2023-07-18T10:48:19.234Z,88779.00
2023-07-18T10:49:19.188Z,88777.00
2023-07-18T10:50:20.440Z,88773.00
2023-07-18T10:51:19.266Z,88773.00
2023-07-18T10:52:19.092Z,88771.00
2023-07-18T10:53:19.091Z,88773.00
2023-07-18T10:54:19.051Z,88765.00
2023-07-18T10:55:19.022Z,88763.00
2023-07-18T10:56:18.993Z,88765.00
2023-07-18T10:57:18.984Z,88769.00
2023-07-18T10:58:18.995Z,88781.00
2023-07-18T10:59:18.922Z,88773.00
2023-07-18T11:00:18.897Z,88769.00
2023-07-18T11:01:19.478Z,88765.00
2023-07-18T11:02:19.822Z,88765.00
2023-07-18T11:03:18.801Z,88763.00
2023-07-18T11:04:18.966Z,88775.00
2023-07-18T11:05:18.732Z,88765.00
2023-07-18T11:06:18.697Z,88763.00
2023-07-18T11:07:18.700Z,88759.00
2023-07-18T11:08:18.667Z,88765.00
2023-07-18T11:09:20.162Z,88763.00
2023-07-18T11:10:18.645Z,88761.00
2023-07-18T11:11:19.001Z,88755.00
2023-07-18T11:12:18.558Z,88759.00
2023-07-18T11:13:18.568Z,88755.00
2023-07-18T11:14:18.511Z,88749.00
2023-07-18T11:15:18.476Z,88738.00
2023-07-18T11:16:18.468Z,88748.00
2023-07-18T11:17:18.474Z,88746.00
2023-07-18T11:18:18.399Z,88746.00
2023-07-18T11:19:18.368Z,88744.00
2023-07-18T11:20:18.392Z,88740.00
2023-07-18T11:21:18.341Z,88734.00
2023-07-18T11:22:18.323Z,88727.00
2023-07-18T11:23:18.273Z,88734.00
2023-07-18T11:24:18.255Z,88727.00
2023-07-18T11:25:18.236Z,88736.00
2023-07-18T11:26:18.235Z,88719.00
2023-07-18T11:27:18.163Z,88719.00
2023-07-18T11:28:18.134Z,88723.00
2023-07-18T11:29:18.130Z,88721.00
2023-07-18T11:30:18.092Z,88721.00
2023-07-18T11:31:26.652Z,88711.00
2023-07-18T11:32:19.064Z,88711.00
2023-07-18T11:33:18.017Z,88703.00
2023-07-18T11:34:17.986Z,88701.00
2023-07-18T11:35:17.956Z,88693.00
2023-07-18T11:36:17.953Z,88687.00
2023-07-18T11:37:17.921Z,88689.00
2023-07-18T11:38:17.887Z,88683.00
2023-07-18T11:39:19.996Z,88679.00
2023-07-18T11:40:18.061Z,88677.00
2023-07-18T11:41:18.329Z,88677.00
2023-07-18T11:42:18.146Z,88679.00
2023-07-18T11:43:18.140Z,88683.00
2023-07-18T11:44:18.182Z,88679.00